sensor_id;sensor_type;location;lat;lon;timestamp;P1;durP1;ratioP1;P2;durP2;ratioP2
58472;SDS011;44775;51.564;5.460;2023-09-07T00:01:33;18.30;;;15.10;;
58472;SDS011;44775;51.564;5.460;2023-09-07T00:03:59;20.10;;;16.17;;
58472;SDS011;44775;51.564;5.460;2023-09-07T00:06:24;19.58;;;15.82;;
58472;SDS011;44775;51.564;5.460;2023-09-07T00:08:50;20.73;;;15.88;;
58472;SDS011;44775;51.564;5.460;2023-09-07T00:11:16;22.42;;;16.85;;
58472;SDS011;44775;51.564;5.460;2023-09-07T00:13:41;21.13;;;16.50;;
58472;SDS011;44775;51.564;5.460;2023-09-07T00:16:06;20.58;;;16.77;;
58472;SDS011;44775;51.564;5.460;2023-09-07T00:18:33;20.70;;;16.95;;
58472;SDS011;44775;51.564;5.460;2023-09-07T00:20:59;20.55;;;16.60;;
58472;SDS011;44775;51.564;5.460;2023-09-07T00:23:25;20.85;;;16.13;;
58472;SDS011;44775;51.564;5.460;2023-09-07T00:25:51;22.65;;;18.25;;
58472;SDS011;44775;51.564;5.460;2023-09-07T00:28:16;22.10;;;17.83;;
58472;SDS011;44775;51.564;5.460;2023-09-07T00:30:41;23.80;;;18.08;;
58472;SDS011;44775;51.564;5.460;2023-09-07T00:33:07;21.35;;;17.63;;
58472;SDS011;44775;51.564;5.460;2023-09-07T00:35:32;21.30;;;18.75;;
58472;SDS011;44775;51.564;5.460;2023-09-07T00:37:58;23.20;;;18.20;;
58472;SDS011;44775;51.564;5.460;2023-09-07T00:40:23;21.63;;;18.73;;
58472;SDS011;44775;51.564;5.460;2023-09-07T00:42:48;26.23;;;20.05;;
58472;SDS011;44775;51.564;5.460;2023-09-07T00:45:14;23.10;;;17.85;;
58472;SDS011;44775;51.564;5.460;2023-09-07T00:47:39;22.27;;;19.13;;
58472;SDS011;44775;51.564;5.460;2023-09-07T00:50:05;23.30;;;19.30;;
58472;SDS011;44775;51.564;5.460;2023-09-07T00:52:31;24.35;;;19.83;;
58472;SDS011;44775;51.564;5.460;2023-09-07T00:54:58;26.48;;;20.17;;
58472;SDS011;44775;51.564;5.460;2023-09-07T00:57:24;25.20;;;19.45;;
58472;SDS011;44775;51.564;5.460;2023-09-07T00:59:49;25.05;;;20.35;;
58472;SDS011;44775;51.564;5.460;2023-09-07T01:02:15;27.73;;;21.13;;
58472;SDS011;44775;51.564;5.460;2023-09-07T01:04:40;24.85;;;19.92;;
58472;SDS011;44775;51.564;5.460;2023-09-07T01:07:26;23.75;;;20.38;;
58472;SDS011;44775;51.564;5.460;2023-09-07T01:10:08;25.77;;;20.90;;
58472;SDS011;44775;51.564;5.460;2023-09-07T01:12:33;26.17;;;20.38;;
58472;SDS011;44775;51.564;5.460;2023-09-07T01:14:58;25.73;;;21.75;;
58472;SDS011;44775;51.564;5.460;2023-09-07T01:17:24;24.23;;;21.10;;
58472;SDS011;44775;51.564;5.460;2023-09-07T01:19:50;27.42;;;21.40;;
58472;SDS011;44775;51.564;5.460;2023-09-07T01:22:18;30.23;;;23.27;;
58472;SDS011;44775;51.564;5.460;2023-09-07T01:24:44;30.48;;;22.70;;
58472;SDS011;44775;51.564;5.460;2023-09-07T01:27:11;26.35;;;22.33;;
58472;SDS011;44775;51.564;5.460;2023-09-07T01:29:38;26.95;;;22.40;;
58472;SDS011;44775;51.564;5.460;2023-09-07T01:32:03;29.25;;;22.73;;
58472;SDS011;44775;51.564;5.460;2023-09-07T01:34:29;28.95;;;23.33;;
58472;SDS011;44775;51.564;5.460;2023-09-07T01:36:54;28.40;;;23.58;;
58472;SDS011;44775;51.564;5.460;2023-09-07T01:39:21;28.30;;;24.50;;
58472;SDS011;44775;51.564;5.460;2023-09-07T01:41:47;32.30;;;24.75;;
58472;SDS011;44775;51.564;5.460;2023-09-07T01:44:12;29.15;;;24.27;;
58472;SDS011;44775;51.564;5.460;2023-09-07T01:46:38;30.20;;;23.65;;
58472;SDS011;44775;51.564;5.460;2023-09-07T01:49:03;33.33;;;24.55;;
58472;SDS011;44775;51.564;5.460;2023-09-07T01:51:29;31.38;;;25.02;;
58472;SDS011;44775;51.564;5.460;2023-09-07T01:53:54;31.88;;;24.02;;
58472;SDS011;44775;51.564;5.460;2023-09-07T01:56:20;28.08;;;24.50;;
58472;SDS011;44775;51.564;5.460;2023-09-07T01:58:45;31.27;;;24.02;;
58472;SDS011;44775;51.564;5.460;2023-09-07T02:01:27;29.55;;;24.70;;
58472;SDS011;44775;51.564;5.460;2023-09-07T02:03:55;29.00;;;23.30;;
58472;SDS011;44775;51.564;5.460;2023-09-07T02:06:20;32.00;;;25.13;;
58472;SDS011;44775;51.564;5.460;2023-09-07T02:08:46;29.33;;;24.70;;
58472;SDS011;44775;51.564;5.460;2023-09-07T02:11:11;30.88;;;26.20;;
58472;SDS011;44775;51.564;5.460;2023-09-07T02:13:37;32.38;;;26.45;;
58472;SDS011;44775;51.564;5.460;2023-09-07T02:16:05;32.72;;;25.50;;
58472;SDS011;44775;51.564;5.460;2023-09-07T02:18:34;32.80;;;25.85;;
58472;SDS011;44775;51.564;5.460;2023-09-07T02:21:05;29.50;;;23.85;;
58472;SDS011;44775;51.564;5.460;2023-09-07T02:23:33;31.83;;;25.48;;
58472;SDS011;44775;51.564;5.460;2023-09-07T02:25:59;30.20;;;25.33;;
58472;SDS011;44775;51.564;5.460;2023-09-07T02:28:24;31.50;;;25.88;;
58472;SDS011;44775;51.564;5.460;2023-09-07T02:30:51;31.73;;;25.35;;
58472;SDS011;44775;51.564;5.460;2023-09-07T02:33:17;32.97;;;24.35;;
58472;SDS011;44775;51.564;5.460;2023-09-07T02:35:42;32.50;;;25.92;;
58472;SDS011;44775;51.564;5.460;2023-09-07T02:38:07;33.78;;;25.77;;
58472;SDS011;44775;51.564;5.460;2023-09-07T02:40:33;29.42;;;24.67;;
58472;SDS011;44775;51.564;5.460;2023-09-07T02:43:05;29.70;;;24.88;;
58472;SDS011;44775;51.564;5.460;2023-09-07T02:45:31;29.52;;;23.70;;
58472;SDS011;44775;51.564;5.460;2023-09-07T02:47:56;30.63;;;24.95;;
58472;SDS011;44775;51.564;5.460;2023-09-07T02:50:21;30.83;;;25.38;;
58472;SDS011;44775;51.564;5.460;2023-09-07T02:52:47;32.83;;;25.83;;
58472;SDS011;44775;51.564;5.460;2023-09-07T02:55:13;31.55;;;25.50;;
58472;SDS011;44775;51.564;5.460;2023-09-07T02:57:38;30.40;;;24.95;;
58472;SDS011;44775;51.564;5.460;2023-09-07T03:00:04;32.42;;;25.85;;
58472;SDS011;44775;51.564;5.460;2023-09-07T03:02:34;31.42;;;25.88;;
58472;SDS011;44775;51.564;5.460;2023-09-07T03:05:00;30.35;;;23.23;;
58472;SDS011;44775;51.564;5.460;2023-09-07T03:07:26;29.90;;;23.98;;
58472;SDS011;44775;51.564;5.460;2023-09-07T03:09:52;33.33;;;22.30;;
58472;SDS011;44775;51.564;5.460;2023-09-07T03:12:17;30.17;;;23.90;;
58472;SDS011;44775;51.564;5.460;2023-09-07T03:14:43;30.20;;;24.15;;
58472;SDS011;44775;51.564;5.460;2023-09-07T03:17:09;26.40;;;21.80;;
58472;SDS011;44775;51.564;5.460;2023-09-07T03:19:35;29.52;;;22.15;;
58472;SDS011;44775;51.564;5.460;2023-09-07T03:22:01;25.02;;;20.60;;
58472;SDS011;44775;51.564;5.460;2023-09-07T03:24:26;29.00;;;22.63;;
58472;SDS011;44775;51.564;5.460;2023-09-07T03:26:53;28.27;;;22.75;;
58472;SDS011;44775;51.564;5.460;2023-09-07T03:29:18;27.02;;;22.08;;
58472;SDS011;44775;51.564;5.460;2023-09-07T03:31:43;25.45;;;21.50;;
58472;SDS011;44775;51.564;5.460;2023-09-07T03:34:08;23.90;;;20.13;;
58472;SDS011;44775;51.564;5.460;2023-09-07T03:36:34;27.65;;;22.33;;
58472;SDS011;44775;51.564;5.460;2023-09-07T03:38:59;28.77;;;23.15;;
58472;SDS011;44775;51.564;5.460;2023-09-07T03:41:24;29.27;;;21.80;;
58472;SDS011;44775;51.564;5.460;2023-09-07T03:43:55;26.23;;;22.23;;
58472;SDS011;44775;51.564;5.460;2023-09-07T03:46:20;27.40;;;20.70;;
58472;SDS011;44775;51.564;5.460;2023-09-07T03:48:45;27.70;;;22.77;;
58472;SDS011;44775;51.564;5.460;2023-09-07T03:51:11;28.75;;;22.40;;
58472;SDS011;44775;51.564;5.460;2023-09-07T03:53:36;27.77;;;21.98;;
58472;SDS011;44775;51.564;5.460;2023-09-07T03:56:03;26.30;;;21.75;;
58472;SDS011;44775;51.564;5.460;2023-09-07T03:58:31;25.23;;;21.50;;
58472;SDS011;44775;51.564;5.460;2023-09-07T04:00:58;27.80;;;21.70;;
58472;SDS011;44775;51.564;5.460;2023-09-07T04:03:24;26.55;;;21.23;;
58472;SDS011;44775;51.564;5.460;2023-09-07T04:05:50;27.10;;;22.73;;
58472;SDS011;44775;51.564;5.460;2023-09-07T04:08:15;30.35;;;21.48;;
58472;SDS011;44775;51.564;5.460;2023-09-07T04:10:41;27.83;;;22.08;;
58472;SDS011;44775;51.564;5.460;2023-09-07T04:13:06;24.60;;;21.48;;
58472;SDS011;44775;51.564;5.460;2023-09-07T04:15:32;27.15;;;22.08;;
58472;SDS011;44775;51.564;5.460;2023-09-07T04:18:09;27.45;;;22.35;;
58472;SDS011;44775;51.564;5.460;2023-09-07T04:20:34;28.98;;;21.00;;
58472;SDS011;44775;51.564;5.460;2023-09-07T04:22:59;28.63;;;22.98;;
58472;SDS011;44775;51.564;5.460;2023-09-07T04:25:25;28.08;;;23.33;;
58472;SDS011;44775;51.564;5.460;2023-09-07T04:27:51;29.85;;;23.40;;
58472;SDS011;44775;51.564;5.460;2023-09-07T04:30:16;27.52;;;22.98;;
58472;SDS011;44775;51.564;5.460;2023-09-07T04:32:42;28.10;;;22.50;;
58472;SDS011;44775;51.564;5.460;2023-09-07T04:35:07;29.98;;;23.15;;
58472;SDS011;44775;51.564;5.460;2023-09-07T04:37:33;30.25;;;22.95;;
58472;SDS011;44775;51.564;5.460;2023-09-07T04:39:58;28.02;;;21.88;;
58472;SDS011;44775;51.564;5.460;2023-09-07T04:42:23;26.02;;;21.10;;
58472;SDS011;44775;51.564;5.460;2023-09-07T04:44:48;29.58;;;22.50;;
58472;SDS011;44775;51.564;5.460;2023-09-07T04:47:14;25.95;;;21.60;;
58472;SDS011;44775;51.564;5.460;2023-09-07T04:49:42;29.02;;;22.50;;
58472;SDS011;44775;51.564;5.460;2023-09-07T04:52:13;28.60;;;22.58;;
58472;SDS011;44775;51.564;5.460;2023-09-07T04:54:38;27.30;;;23.00;;
58472;SDS011;44775;51.564;5.460;2023-09-07T04:57:03;31.10;;;23.98;;
58472;SDS011;44775;51.564;5.460;2023-09-07T04:59:29;30.67;;;23.45;;
58472;SDS011;44775;51.564;5.460;2023-09-07T05:01:54;29.80;;;22.77;;
58472;SDS011;44775;51.564;5.460;2023-09-07T05:04:19;29.70;;;23.00;;
58472;SDS011;44775;51.564;5.460;2023-09-07T05:06:45;29.90;;;22.48;;
58472;SDS011;44775;51.564;5.460;2023-09-07T05:09:10;30.02;;;23.83;;
58472;SDS011;44775;51.564;5.460;2023-09-07T05:11:36;30.85;;;22.70;;
58472;SDS011;44775;51.564;5.460;2023-09-07T05:14:02;30.75;;;24.98;;
58472;SDS011;44775;51.564;5.460;2023-09-07T05:16:27;30.38;;;23.67;;
58472;SDS011;44775;51.564;5.460;2023-09-07T05:18:53;33.25;;;24.85;;
58472;SDS011;44775;51.564;5.460;2023-09-07T05:21:18;34.88;;;24.13;;
58472;SDS011;44775;51.564;5.460;2023-09-07T05:23:44;35.00;;;23.13;;
58472;SDS011;44775;51.564;5.460;2023-09-07T05:26:09;36.75;;;24.48;;
58472;SDS011;44775;51.564;5.460;2023-09-07T05:28:35;30.20;;;23.52;;
58472;SDS011;44775;51.564;5.460;2023-09-07T05:31:00;33.25;;;26.08;;
58472;SDS011;44775;51.564;5.460;2023-09-07T05:33:26;36.17;;;27.08;;
58472;SDS011;44775;51.564;5.460;2023-09-07T05:35:51;35.42;;;25.83;;
58472;SDS011;44775;51.564;5.460;2023-09-07T05:38:16;39.75;;;28.38;;
58472;SDS011;44775;51.564;5.460;2023-09-07T05:40:42;38.90;;;28.25;;
58472;SDS011;44775;51.564;5.460;2023-09-07T05:43:09;42.33;;;29.05;;
58472;SDS011;44775;51.564;5.460;2023-09-07T05:45:39;42.53;;;31.67;;
58472;SDS011;44775;51.564;5.460;2023-09-07T05:48:06;39.92;;;28.45;;
58472;SDS011;44775;51.564;5.460;2023-09-07T05:50:33;34.80;;;28.13;;
58472;SDS011;44775;51.564;5.460;2023-09-07T05:53:00;39.80;;;28.48;;
58472;SDS011;44775;51.564;5.460;2023-09-07T05:55:25;34.08;;;26.20;;
58472;SDS011;44775;51.564;5.460;2023-09-07T05:57:53;36.47;;;27.20;;
58472;SDS011;44775;51.564;5.460;2023-09-07T06:00:19;34.47;;;25.30;;
58472;SDS011;44775;51.564;5.460;2023-09-07T06:02:45;37.40;;;26.17;;
58472;SDS011;44775;51.564;5.460;2023-09-07T06:05:11;31.92;;;24.52;;
58472;SDS011;44775;51.564;5.460;2023-09-07T06:07:36;31.08;;;23.10;;
58472;SDS011;44775;51.564;5.460;2023-09-07T06:10:02;23.88;;;20.73;;
58472;SDS011;44775;51.564;5.460;2023-09-07T06:12:27;28.35;;;23.23;;
58472;SDS011;44775;51.564;5.460;2023-09-07T06:14:52;31.42;;;23.52;;
58472;SDS011;44775;51.564;5.460;2023-09-07T06:17:18;26.67;;;20.65;;
58472;SDS011;44775;51.564;5.460;2023-09-07T06:19:44;28.25;;;23.13;;
58472;SDS011;44775;51.564;5.460;2023-09-07T06:22:09;30.80;;;24.27;;
58472;SDS011;44775;51.564;5.460;2023-09-07T06:24:34;29.98;;;24.00;;
58472;SDS011;44775;51.564;5.460;2023-09-07T06:27:00;30.42;;;24.33;;
58472;SDS011;44775;51.564;5.460;2023-09-07T06:29:25;28.00;;;20.30;;
58472;SDS011;44775;51.564;5.460;2023-09-07T06:31:50;28.80;;;23.58;;
58472;SDS011;44775;51.564;5.460;2023-09-07T06:34:17;30.20;;;24.35;;
58472;SDS011;44775;51.564;5.460;2023-09-07T06:36:42;28.35;;;22.85;;
58472;SDS011;44775;51.564;5.460;2023-09-07T06:39:08;34.25;;;23.40;;
58472;SDS011;44775;51.564;5.460;2023-09-07T06:41:34;26.90;;;22.20;;
58472;SDS011;44775;51.564;5.460;2023-09-07T06:43:59;25.52;;;20.95;;
58472;SDS011;44775;51.564;5.460;2023-09-07T06:46:25;21.90;;;17.63;;
58472;SDS011;44775;51.564;5.460;2023-09-07T06:48:50;20.85;;;18.30;;
58472;SDS011;44775;51.564;5.460;2023-09-07T06:51:15;16.67;;;14.73;;
58472;SDS011;44775;51.564;5.460;2023-09-07T06:53:41;9.80;;;8.23;;
58472;SDS011;44775;51.564;5.460;2023-09-07T06:56:06;11.90;;;10.15;;
58472;SDS011;44775;51.564;5.460;2023-09-07T06:58:31;5.07;;;4.53;;
58472;SDS011;44775;51.564;5.460;2023-09-07T07:00:59;5.05;;;4.55;;
58472;SDS011;44775;51.564;5.460;2023-09-07T07:03:26;7.50;;;6.78;;
58472;SDS011;44775;51.564;5.460;2023-09-07T07:05:52;3.47;;;3.17;;
58472;SDS011;44775;51.564;5.460;2023-09-07T07:08:18;3.78;;;2.92;;
58472;SDS011;44775;51.564;5.460;2023-09-07T07:10:43;20.10;;;15.25;;
58472;SDS011;44775;51.564;5.460;2023-09-07T07:13:09;4.43;;;4.03;;
58472;SDS011;44775;51.564;5.460;2023-09-07T07:15:34;5.82;;;4.68;;
58472;SDS011;44775;51.564;5.460;2023-09-07T07:18:00;3.17;;;2.88;;
58472;SDS011;44775;51.564;5.460;2023-09-07T07:20:26;6.35;;;4.63;;
58472;SDS011;44775;51.564;5.460;2023-09-07T07:22:51;6.30;;;5.20;;
58472;SDS011;44775;51.564;5.460;2023-09-07T07:25:17;5.97;;;5.25;;
58472;SDS011;44775;51.564;5.460;2023-09-07T07:27:42;3.10;;;2.80;;
58472;SDS011;44775;51.564;5.460;2023-09-07T07:30:08;4.28;;;3.45;;
58472;SDS011;44775;51.564;5.460;2023-09-07T07:32:33;5.03;;;4.43;;
58472;SDS011;44775;51.564;5.460;2023-09-07T07:34:59;3.45;;;3.15;;
58472;SDS011;44775;51.564;5.460;2023-09-07T07:37:24;4.75;;;3.42;;
58472;SDS011;44775;51.564;5.460;2023-09-07T07:39:50;10.55;;;9.10;;
58472;SDS011;44775;51.564;5.460;2023-09-07T07:42:15;6.40;;;4.55;;
58472;SDS011;44775;51.564;5.460;2023-09-07T07:44:40;8.70;;;7.35;;
58472;SDS011;44775;51.564;5.460;2023-09-07T07:47:06;6.40;;;4.30;;
58472;SDS011;44775;51.564;5.460;2023-09-07T07:49:31;4.22;;;3.03;;
58472;SDS011;44775;51.564;5.460;2023-09-07T07:51:57;11.05;;;7.05;;
58472;SDS011;44775;51.564;5.460;2023-09-07T07:54:23;6.85;;;6.15;;
58472;SDS011;44775;51.564;5.460;2023-09-07T07:56:49;3.00;;;2.70;;
58472;SDS011;44775;51.564;5.460;2023-09-07T07:59:15;5.43;;;4.07;;
58472;SDS011;44775;51.564;5.460;2023-09-07T08:01:40;3.20;;;2.90;;
58472;SDS011;44775;51.564;5.460;2023-09-07T08:04:07;4.38;;;3.45;;
58472;SDS011;44775;51.564;5.460;2023-09-07T08:06:33;4.78;;;3.53;;
58472;SDS011;44775;51.564;5.460;2023-09-07T08:08:59;3.95;;;3.63;;
58472;SDS011;44775;51.564;5.460;2023-09-07T08:11:25;6.43;;;4.10;;
58472;SDS011;44775;51.564;5.460;2023-09-07T08:13:51;9.55;;;7.93;;
58472;SDS011;44775;51.564;5.460;2023-09-07T08:16:16;5.43;;;3.30;;
58472;SDS011;44775;51.564;5.460;2023-09-07T08:18:42;4.65;;;3.20;;
58472;SDS011;44775;51.564;5.460;2023-09-07T08:21:08;10.32;;;7.95;;
58472;SDS011;44775;51.564;5.460;2023-09-07T08:23:34;3.40;;;3.10;;
58472;SDS011;44775;51.564;5.460;2023-09-07T08:25:59;6.93;;;5.85;;
58472;SDS011;44775;51.564;5.460;2023-09-07T08:28:25;4.57;;;3.70;;
58472;SDS011;44775;51.564;5.460;2023-09-07T08:30:51;3.55;;;3.08;;
58472;SDS011;44775;51.564;5.460;2023-09-07T08:33:18;4.00;;;3.50;;
58472;SDS011;44775;51.564;5.460;2023-09-07T08:35:44;3.67;;;2.90;;
58472;SDS011;44775;51.564;5.460;2023-09-07T08:38:10;4.68;;;4.15;;
58472;SDS011;44775;51.564;5.460;2023-09-07T08:40:36;5.32;;;4.13;;
58472;SDS011;44775;51.564;5.460;2023-09-07T08:43:05;6.85;;;5.10;;
58472;SDS011;44775;51.564;5.460;2023-09-07T08:45:36;3.55;;;2.90;;
58472;SDS011;44775;51.564;5.460;2023-09-07T08:48:10;3.55;;;3.20;;
58472;SDS011;44775;51.564;5.460;2023-09-07T08:50:39;4.93;;;3.20;;
58472;SDS011;44775;51.564;5.460;2023-09-07T08:53:07;4.15;;;3.22;;
58472;SDS011;44775;51.564;5.460;2023-09-07T08:55:33;4.50;;;3.47;;
58472;SDS011;44775;51.564;5.460;2023-09-07T08:57:59;5.40;;;3.95;;
58472;SDS011;44775;51.564;5.460;2023-09-07T09:00:24;3.40;;;3.10;;
58472;SDS011;44775;51.564;5.460;2023-09-07T09:02:49;4.88;;;4.22;;
58472;SDS011;44775;51.564;5.460;2023-09-07T09:05:15;4.07;;;3.50;;
58472;SDS011;44775;51.564;5.460;2023-09-07T09:07:40;6.28;;;3.70;;
58472;SDS011;44775;51.564;5.460;2023-09-07T09:10:06;5.88;;;3.85;;
58472;SDS011;44775;51.564;5.460;2023-09-07T09:12:33;4.25;;;3.28;;
58472;SDS011;44775;51.564;5.460;2023-09-07T09:14:59;5.70;;;3.60;;
58472;SDS011;44775;51.564;5.460;2023-09-07T09:17:25;5.55;;;3.60;;
58472;SDS011;44775;51.564;5.460;2023-09-07T09:19:51;7.00;;;4.90;;
58472;SDS011;44775;51.564;5.460;2023-09-07T09:22:16;4.88;;;3.40;;
58472;SDS011;44775;51.564;5.460;2023-09-07T09:24:42;6.43;;;4.18;;
58472;SDS011;44775;51.564;5.460;2023-09-07T09:27:07;8.30;;;5.15;;
58472;SDS011;44775;51.564;5.460;2023-09-07T09:29:33;6.50;;;4.93;;
58472;SDS011;44775;51.564;5.460;2023-09-07T09:32:00;4.80;;;3.65;;
58472;SDS011;44775;51.564;5.460;2023-09-07T09:34:31;3.58;;;3.13;;
58472;SDS011;44775;51.564;5.460;2023-09-07T09:36:58;4.00;;;3.17;;
58472;SDS011;44775;51.564;5.460;2023-09-07T09:39:24;7.13;;;4.80;;
58472;SDS011;44775;51.564;5.460;2023-09-07T09:41:50;3.15;;;2.80;;
58472;SDS011;44775;51.564;5.460;2023-09-07T09:44:16;5.22;;;3.78;;
58472;SDS011;44775;51.564;5.460;2023-09-07T09:46:42;3.55;;;3.25;;
58472;SDS011;44775;51.564;5.460;2023-09-07T09:49:08;3.10;;;2.75;;
58472;SDS011;44775;51.564;5.460;2023-09-07T09:51:36;3.90;;;3.00;;
58472;SDS011;44775;51.564;5.460;2023-09-07T09:54:03;5.00;;;4.50;;
58472;SDS011;44775;51.564;5.460;2023-09-07T09:56:29;3.75;;;3.10;;
58472;SDS011;44775;51.564;5.460;2023-09-07T09:58:55;4.50;;;3.00;;
58472;SDS011;44775;51.564;5.460;2023-09-07T10:01:20;5.20;;;3.13;;
58472;SDS011;44775;51.564;5.460;2023-09-07T10:03:47;4.47;;;3.50;;
58472;SDS011;44775;51.564;5.460;2023-09-07T10:06:19;3.47;;;3.00;;
58472;SDS011;44775;51.564;5.460;2023-09-07T10:09:01;5.82;;;4.28;;
58472;SDS011;44775;51.564;5.460;2023-09-07T10:11:33;6.75;;;3.78;;
58472;SDS011;44775;51.564;5.460;2023-09-07T10:14:02;4.68;;;3.55;;
58472;SDS011;44775;51.564;5.460;2023-09-07T10:16:40;3.38;;;2.78;;
58472;SDS011;44775;51.564;5.460;2023-09-07T10:19:20;4.65;;;3.38;;
58472;SDS011;44775;51.564;5.460;2023-09-07T10:21:47;3.50;;;2.85;;
58472;SDS011;44775;51.564;5.460;2023-09-07T10:27:01;6.00;;;3.85;;
58472;SDS011;44775;51.564;5.460;2023-09-07T10:29:44;5.72;;;3.70;;
58472;SDS011;44775;51.564;5.460;2023-09-07T10:32:10;4.03;;;2.75;;
58472;SDS011;44775;51.564;5.460;2023-09-07T10:34:37;2.90;;;2.70;;
58472;SDS011;44775;51.564;5.460;2023-09-07T10:37:04;3.95;;;2.92;;
58472;SDS011;44775;51.564;5.460;2023-09-07T10:39:33;4.63;;;3.05;;
58472;SDS011;44775;51.564;5.460;2023-09-07T10:41:59;3.90;;;2.97;;
58472;SDS011;44775;51.564;5.460;2023-09-07T10:44:25;3.35;;;2.90;;
58472;SDS011;44775;51.564;5.460;2023-09-07T10:46:51;3.97;;;3.20;;
58472;SDS011;44775;51.564;5.460;2023-09-07T10:49:17;6.85;;;3.55;;
58472;SDS011;44775;51.564;5.460;2023-09-07T10:51:43;3.80;;;3.08;;
58472;SDS011;44775;51.564;5.460;2023-09-07T10:54:14;6.47;;;3.37;;
58472;SDS011;44775;51.564;5.460;2023-09-07T10:56:40;5.00;;;3.85;;
58472;SDS011;44775;51.564;5.460;2023-09-07T10:59:08;3.20;;;2.85;;
58472;SDS011;44775;51.564;5.460;2023-09-07T11:01:33;5.40;;;2.90;;
58472;SDS011;44775;51.564;5.460;2023-09-07T11:03:59;5.82;;;3.45;;
58472;SDS011;44775;51.564;5.460;2023-09-07T11:06:24;3.05;;;2.75;;
58472;SDS011;44775;51.564;5.460;2023-09-07T11:08:50;4.40;;;2.90;;
58472;SDS011;44775;51.564;5.460;2023-09-07T11:11:15;3.65;;;2.90;;
58472;SDS011;44775;51.564;5.460;2023-09-07T11:13:41;4.28;;;2.90;;
58472;SDS011;44775;51.564;5.460;2023-09-07T11:16:07;3.10;;;2.80;;
58472;SDS011;44775;51.564;5.460;2023-09-07T11:18:34;7.63;;;2.97;;
58472;SDS011;44775;51.564;5.460;2023-09-07T11:21:01;4.10;;;3.00;;
58472;SDS011;44775;51.564;5.460;2023-09-07T11:25:54;4.13;;;3.17;;
58472;SDS011;44775;51.564;5.460;2023-09-07T11:28:19;4.20;;;3.10;;
58472;SDS011;44775;51.564;5.460;2023-09-07T11:30:51;3.67;;;2.88;;
58472;SDS011;44775;51.564;5.460;2023-09-07T11:33:18;3.35;;;2.63;;
58472;SDS011;44775;51.564;5.460;2023-09-07T11:35:44;6.43;;;3.90;;
58472;SDS011;44775;51.564;5.460;2023-09-07T11:38:12;6.05;;;3.50;;
58472;SDS011;44775;51.564;5.460;2023-09-07T11:40:38;6.25;;;3.42;;
58472;SDS011;44775;51.564;5.460;2023-09-07T11:43:03;4.78;;;3.17;;
58472;SDS011;44775;51.564;5.460;2023-09-07T11:45:29;3.08;;;2.78;;
58472;SDS011;44775;51.564;5.460;2023-09-07T11:47:54;2.97;;;2.63;;
58472;SDS011;44775;51.564;5.460;2023-09-07T11:50:22;3.28;;;2.50;;
58472;SDS011;44775;51.564;5.460;2023-09-07T11:52:48;3.35;;;2.65;;
58472;SDS011;44775;51.564;5.460;2023-09-07T11:55:14;7.80;;;3.67;;
58472;SDS011;44775;51.564;5.460;2023-09-07T11:57:39;3.47;;;2.83;;
58472;SDS011;44775;51.564;5.460;2023-09-07T12:00:06;6.32;;;3.78;;
58472;SDS011;44775;51.564;5.460;2023-09-07T12:02:36;3.15;;;2.72;;
58472;SDS011;44775;51.564;5.460;2023-09-07T12:05:02;3.28;;;2.78;;
58472;SDS011;44775;51.564;5.460;2023-09-07T12:07:28;3.33;;;2.90;;
58472;SDS011;44775;51.564;5.460;2023-09-07T12:09:55;3.42;;;2.70;;
58472;SDS011;44775;51.564;5.460;2023-09-07T12:12:22;4.60;;;3.10;;
58472;SDS011;44775;51.564;5.460;2023-09-07T12:14:48;5.72;;;3.70;;
58472;SDS011;44775;51.564;5.460;2023-09-07T12:17:13;3.95;;;3.10;;
58472;SDS011;44775;51.564;5.460;2023-09-07T12:19:39;3.78;;;3.13;;
58472;SDS011;44775;51.564;5.460;2023-09-07T12:24:32;3.15;;;2.85;;
58472;SDS011;44775;51.564;5.460;2023-09-07T12:26:58;6.80;;;3.60;;
58472;SDS011;44775;51.564;5.460;2023-09-07T12:29:24;3.78;;;3.10;;
58472;SDS011;44775;51.564;5.460;2023-09-07T12:31:50;4.55;;;3.17;;
58472;SDS011;44775;51.564;5.460;2023-09-07T12:34:15;4.93;;;3.13;;
58472;SDS011;44775;51.564;5.460;2023-09-07T12:36:41;3.38;;;2.97;;
58472;SDS011;44775;51.564;5.460;2023-09-07T12:39:06;5.57;;;2.95;;
58472;SDS011;44775;51.564;5.460;2023-09-07T12:41:32;4.93;;;3.28;;
58472;SDS011;44775;51.564;5.460;2023-09-07T12:43:57;3.97;;;2.80;;
58472;SDS011;44775;51.564;5.460;2023-09-07T12:46:22;5.18;;;3.38;;
58472;SDS011;44775;51.564;5.460;2023-09-07T12:48:48;3.63;;;2.90;;
58472;SDS011;44775;51.564;5.460;2023-09-07T12:51:13;3.28;;;2.95;;
58472;SDS011;44775;51.564;5.460;2023-09-07T12:53:38;4.90;;;2.80;;
58472;SDS011;44775;51.564;5.460;2023-09-07T12:56:04;3.95;;;2.90;;
58472;SDS011;44775;51.564;5.460;2023-09-07T12:58:30;3.97;;;2.90;;
58472;SDS011;44775;51.564;5.460;2023-09-07T13:00:55;4.13;;;2.80;;
58472;SDS011;44775;51.564;5.460;2023-09-07T13:03:21;6.32;;;3.72;;
58472;SDS011;44775;51.564;5.460;2023-09-07T13:05:46;4.57;;;3.28;;
58472;SDS011;44775;51.564;5.460;2023-09-07T13:08:12;3.28;;;2.90;;
58472;SDS011;44775;51.564;5.460;2023-09-07T13:10:38;5.78;;;3.10;;
58472;SDS011;44775;51.564;5.460;2023-09-07T13:13:03;3.08;;;2.78;;
58472;SDS011;44775;51.564;5.460;2023-09-07T13:15:29;3.20;;;2.90;;
58472;SDS011;44775;51.564;5.460;2023-09-07T13:17:55;4.22;;;3.10;;
58472;SDS011;44775;51.564;5.460;2023-09-07T13:20:21;3.45;;;3.10;;
58472;SDS011;44775;51.564;5.460;2023-09-07T13:22:46;6.63;;;4.10;;
58472;SDS011;44775;51.564;5.460;2023-09-07T13:25:12;3.92;;;2.88;;
58472;SDS011;44775;51.564;5.460;2023-09-07T13:27:37;3.97;;;2.88;;
58472;SDS011;44775;51.564;5.460;2023-09-07T13:30:03;5.80;;;2.83;;
58472;SDS011;44775;51.564;5.460;2023-09-07T13:32:30;7.28;;;2.88;;
58472;SDS011;44775;51.564;5.460;2023-09-07T13:34:55;7.60;;;3.75;;
58472;SDS011;44775;51.564;5.460;2023-09-07T13:37:21;4.43;;;3.22;;
58472;SDS011;44775;51.564;5.460;2023-09-07T13:39:46;2.88;;;2.58;;
58472;SDS011;44775;51.564;5.460;2023-09-07T13:42:11;3.83;;;2.80;;
58472;SDS011;44775;51.564;5.460;2023-09-07T13:44:37;4.45;;;3.50;;
58472;SDS011;44775;51.564;5.460;2023-09-07T13:47:02;4.03;;;2.95;;
58472;SDS011;44775;51.564;5.460;2023-09-07T13:49:27;6.43;;;3.03;;
58472;SDS011;44775;51.564;5.460;2023-09-07T13:51:53;5.72;;;3.38;;
58472;SDS011;44775;51.564;5.460;2023-09-07T13:54:18;4.38;;;2.80;;
58472;SDS011;44775;51.564;5.460;2023-09-07T13:56:44;6.13;;;2.67;;
58472;SDS011;44775;51.564;5.460;2023-09-07T13:59:11;4.03;;;2.83;;
58472;SDS011;44775;51.564;5.460;2023-09-07T14:01:37;8.15;;;3.70;;
58472;SDS011;44775;51.564;5.460;2023-09-07T14:04:02;5.53;;;3.22;;
58472;SDS011;44775;51.564;5.460;2023-09-07T14:06:28;7.53;;;4.05;;
58472;SDS011;44775;51.564;5.460;2023-09-07T14:08:53;3.72;;;2.92;;
58472;SDS011;44775;51.564;5.460;2023-09-07T14:11:19;4.13;;;2.80;;
58472;SDS011;44775;51.564;5.460;2023-09-07T14:13:44;3.90;;;2.58;;
58472;SDS011;44775;51.564;5.460;2023-09-07T14:16:12;4.60;;;3.05;;
58472;SDS011;44775;51.564;5.460;2023-09-07T14:18:37;3.42;;;2.80;;
58472;SDS011;44775;51.564;5.460;2023-09-07T14:21:02;6.63;;;2.80;;
58472;SDS011;44775;51.564;5.460;2023-09-07T14:23:28;5.93;;;3.03;;
58472;SDS011;44775;51.564;5.460;2023-09-07T14:25:55;4.35;;;2.95;;
58472;SDS011;44775;51.564;5.460;2023-09-07T14:28:20;5.30;;;3.08;;
58472;SDS011;44775;51.564;5.460;2023-09-07T14:30:46;3.33;;;2.75;;
58472;SDS011;44775;51.564;5.460;2023-09-07T14:33:12;4.80;;;3.35;;
58472;SDS011;44775;51.564;5.460;2023-09-07T14:35:37;7.45;;;3.17;;
58472;SDS011;44775;51.564;5.460;2023-09-07T14:38:03;5.40;;;2.83;;